Página principal
METAR-TAF:

METAR-TAF

Aeroportos :

Aeroporto Internacional Yaoundé-Nsimalen

Yaoundé, Camarões

latitude: 03-50N, longitude: 011-31E, altura: 751 m

Observação actual do tempo

O boletim foi feito há 1 hora e 5 minutos, às 02:00 UTC
Temperatura 20°C
Humidade 100%
Pressão 1017 hPa
Visibilidade: 7000 m
Poucas nuvensa uma altura de 300 ft
Nuvens fragmentadasa uma altura de 600 ft

METAR: FKYS 240200Z /////KT 7000 FEW003 BKN006 20/20 Q1017 NOSIG

Hora: 04:05 (03:05 UTC)

Previsão

O boletim foi feito há 4 horas e 5 minutos, às 23:00 UTC
Previsão válida de 24 às 00 UTC a 24 às 24 UTC
Vento 5 kt com direcção variável
Visibilidade: 8000 m
Nuvens fragmentadasa uma altura de 600 ft
Poucas nuvensa uma altura de 2000 ft, Cumulonimbus.
Temporariamente
de 24 às 03 UTC a 24 às 07 UTC
Visibilidade: 3000 m
neblina
Tornando-se
de 24 às 07 UTC a 24 às 09 UTC
Nuvens fragmentadasa uma altura de 1600 ft

TAF: FKYS 232300Z 2400/2424 VRB05KT 8000 BKN006 FEW020CB TEMPO 2403/2407 3000 BR BECMG 2407/2409 BKN016

Observações e previsões do tempo de mais de 4000 aeroportos (mensagens METAR e TAF).

As estações disponíveis são os pontos amarelos e vermelhos sobre o mapa.

Mova o rato sobre o mapa para ver o nome da estação.

Depois clique no ponto para visualizar as observações e previsões meteorológicas.

Para alterar o mapa : clique nos botões verdes com uma cruz preta para aumentar o zoom; no botão verde com uma pitada de zoom; ou nas setas verdes para mapas adjacentes.


METAR-TAF: